Time;durP1;ratioP1;P1;durP2;ratioP2;P2;SDS_P1;SDS_P2;PMS_P1;PMS_P2;Temp;Humidity;BMP_temperature;BMP_pressure;BME280_temperature;BME280_humidity;BME280_pressure;Samples;Min_cycle;Max_cycle;Signal;HPM_P1;HPM_P2
2023/08/09 00:00:20;;;;;;;4.60;1.65;;;11.70;99.90;;;;;;5056473;28;20108;-63
2023/08/09 00:02:46;;;;;;;2.08;1.88;;;11.70;99.90;;;;;;5056800;28;20033;-63
2023/08/09 00:05:11;;;;;;;3.58;1.75;;;11.70;99.90;;;;;;5056306;28;20552;-63
2023/08/09 00:07:37;;;;;;;3.03;1.48;;;11.70;99.90;;;;;;5056202;28;20036;-63
2023/08/09 00:10:03;;;;;;;6.30;2.75;;;11.70;99.90;;;;;;5056708;28;20493;-63
2023/08/09 00:12:29;;;;;;;4.47;1.77;;;11.70;99.90;;;;;;5056491;28;20025;-63
2023/08/09 00:14:54;;;;;;;1.98;1.77;;;11.70;99.90;;;;;;5056880;28;20504;-64
2023/08/09 00:17:20;;;;;;;3.83;2.17;;;11.80;99.90;;;;;;5059070;28;20029;-65
2023/08/09 00:19:46;;;;;;;3.67;1.80;;;11.80;99.90;;;;;;5059513;28;20032;-64
2023/08/09 00:22:12;;;;;;;2.30;1.67;;;11.80;99.90;;;;;;5060261;28;20025;-64
2023/08/09 00:24:37;;;;;;;1.98;1.58;;;11.80;99.90;;;;;;5061143;28;20075;-64
2023/08/09 00:27:03;;;;;;;5.78;3.10;;;11.80;99.90;;;;;;5060915;28;20033;-63
2023/08/09 00:29:29;;;;;;;3.95;1.52;;;11.80;99.90;;;;;;5055032;28;20486;-64
2023/08/09 00:31:56;;;;;;;4.22;1.35;;;11.80;99.90;;;;;;5056042;28;20447;-64
2023/08/09 00:34:21;;;;;;;2.03;1.60;;;11.80;99.90;;;;;;5056089;28;20092;-64
2023/08/09 00:36:47;;;;;;;3.17;1.90;;;11.80;99.90;;;;;;5056074;28;20021;-63
2023/08/09 00:39:13;;;;;;;5.90;1.85;;;11.80;99.90;;;;;;5056047;28;20466;-64
2023/08/09 00:41:39;;;;;;;3.72;1.80;;;11.80;99.90;;;;;;5055614;28;20033;-63
2023/08/09 00:44:05;;;;;;;4.80;1.50;;;11.90;99.90;;;;;;5056302;28;20029;-63
2023/08/09 00:46:30;;;;;;;3.35;1.73;;;11.90;99.90;;;;;;5055836;28;20059;-64
2023/08/09 00:48:56;;;;;;;3.47;1.58;;;11.90;99.90;;;;;;5054479;28;20033;-63
2023/08/09 00:51:22;;;;;;;1.40;1.23;;;11.90;99.90;;;;;;5054513;28;20074;-63
2023/08/09 00:53:48;;;;;;;2.58;1.67;;;12.00;99.90;;;;;;5054457;28;20048;-63
2023/08/09 00:56:14;;;;;;;1.85;1.60;;;12.00;99.90;;;;;;5056179;28;20374;-64
2023/08/09 00:58:39;;;;;;;2.28;1.77;;;12.00;99.90;;;;;;5054335;28;20032;-64
2023/08/09 01:01:05;;;;;;;1.58;1.30;;;12.00;99.90;;;;;;5055489;28;20032;-64
2023/08/09 01:03:31;;;;;;;3.38;1.77;;;12.00;99.90;;;;;;5055489;28;20040;-63
2023/08/09 01:06:20;;;;;;;2.90;1.38;;;12.00;99.90;;;;;;5053892;28;20021;-63
2023/08/09 01:09:15;;;;;;;1.48;1.38;;;12.00;99.90;;;;;;5054275;28;20032;-63
2023/08/09 01:11:46;;;;;;;1.45;1.35;;;12.00;99.90;;;;;;5050949;28;20029;-64
2023/08/09 01:14:14;;;;;;;3.80;1.30;;;12.00;99.90;;;;;;5055448;28;20378;-63
2023/08/09 01:16:40;;;;;;;7.70;1.60;;;12.00;99.90;;;;;;5055284;28;20032;-63
2023/08/09 01:19:14;;;;;;;3.03;1.27;;;12.00;99.90;;;;;;5055287;28;20021;-63
2023/08/09 01:21:43;;;;;;;1.88;1.45;;;12.00;99.90;;;;;;5055262;28;20029;-63
2023/08/09 01:24:09;;;;;;;;;;;12.00;99.90;;;;;;5055060;28;20041;-63
2023/08/09 01:26:39;;;;;;;2.20;1.95;;;12.00;99.90;;;;;;5054795;28;19904;-64
2023/08/09 01:29:04;;;;;;;4.18;1.70;;;12.00;99.90;;;;;;5054982;28;20111;-64
2023/08/09 01:31:30;;;;;;;3.47;1.52;;;12.00;99.90;;;;;;5055024;28;20422;-64
2023/08/09 01:33:56;;;;;;;2.97;1.60;;;12.00;99.90;;;;;;5054595;28;20045;-63
2023/08/09 01:36:28;;;;;;;2.25;1.50;;;12.00;99.90;;;;;;5054784;28;20057;-63
2023/08/09 01:39:00;;;;;;;2.33;1.70;;;12.00;99.90;;;;;;5054764;28;20486;-63
2023/08/09 01:41:27;;;;;;;1.98;1.77;;;12.00;99.90;;;;;;5054874;28;20043;-64
2023/08/09 01:43:55;;;;;;;1.80;1.40;;;12.10;99.90;;;;;;5053427;28;20494;-64
2023/08/09 01:46:22;;;;;;;1.73;1.40;;;12.10;99.90;;;;;;5054444;28;20028;-63
2023/08/09 01:48:48;;;;;;;3.05;1.55;;;12.10;99.90;;;;;;5053241;28;20032;-63
2023/08/09 01:51:14;;;;;;;1.40;1.30;;;12.20;99.90;;;;;;5053266;28;20028;-63
2023/08/09 01:53:40;;;;;;;2.22;1.50;;;12.20;99.90;;;;;;5053273;28;20051;-64
2023/08/09 01:56:05;;;;;;;1.55;1.30;;;12.20;99.90;;;;;;5054808;28;20124;-64
2023/08/09 01:58:31;;;;;;;1.73;1.40;;;12.20;99.90;;;;;;5053952;28;20025;-65
2023/08/09 02:00:57;;;;;;;1.55;1.45;;;12.30;99.90;;;;;;5055389;28;20116;-64
2023/08/09 02:03:25;;;;;;;3.33;1.30;;;12.30;99.90;;;;;;5055061;28;20423;-64
2023/08/09 02:05:51;;;;;;;2.80;1.50;;;12.30;99.90;;;;;;5056738;28;20406;-64
2023/08/09 02:08:17;;;;;;;1.42;1.33;;;12.40;99.90;;;;;;5055566;28;20044;-63
2023/08/09 02:10:42;;;;;;;1.63;1.30;;;12.40;99.90;;;;;;5054327;28;20059;-63
2023/08/09 02:13:08;;;;;;;2.38;1.30;;;12.40;99.90;;;;;;5054177;28;20139;-63
2023/08/09 02:15:34;;;;;;;2.95;1.38;;;12.50;99.90;;;;;;5052873;28;20051;-63
2023/08/09 02:17:59;;;;;;;1.73;1.60;;;12.50;99.90;;;;;;5053924;28;20029;-63
2023/08/09 02:20:25;;;;;;;2.65;1.30;;;12.50;99.90;;;;;;5054054;28;20090;-63
2023/08/09 02:22:51;;;;;;;2.30;1.30;;;12.50;99.90;;;;;;5052377;28;20044;-63
2023/08/09 02:25:17;;;;;;;3.55;1.45;;;12.50;99.90;;;;;;5052684;28;20057;-63
2023/08/09 02:27:42;;;;;;;3.15;1.40;;;12.50;99.90;;;;;;5054055;28;20095;-63
2023/08/09 02:30:09;;;;;;;1.60;1.40;;;12.50;99.90;;;;;;5053989;28;20455;-63
2023/08/09 02:32:36;;;;;;;3.00;1.27;;;12.60;99.90;;;;;;5053854;28;20508;-63
2023/08/09 02:35:02;;;;;;;2.80;1.40;;;12.60;99.90;;;;;;5053869;28;20032;-64
2023/08/09 02:37:28;;;;;;;2.42;1.17;;;12.60;99.90;;;;;;5052504;28;20029;-64
2023/08/09 02:39:54;;;;;;;1.92;1.40;;;12.70;99.90;;;;;;5052438;28;20454;-63
2023/08/09 02:42:19;;;;;;;10.88;1.55;;;12.70;99.90;;;;;;5053728;28;20040;-63
2023/08/09 02:44:45;;;;;;;5.50;1.30;;;12.70;99.90;;;;;;5053986;28;20520;-63
2023/08/09 02:47:11;;;;;;;1.90;1.38;;;12.70;99.90;;;;;;5052437;28;20025;-63
2023/08/09 02:49:37;;;;;;;2.13;1.48;;;12.70;99.90;;;;;;5053709;28;20037;-63
2023/08/09 02:52:03;;;;;;;3.22;1.42;;;12.70;99.90;;;;;;5053759;28;20497;-63
2023/08/09 02:54:29;;;;;;;4.28;1.45;;;12.70;99.90;;;;;;5053869;28;20033;-64
2023/08/09 02:56:55;;;;;;;1.50;1.40;;;12.70;99.90;;;;;;5053623;28;20474;-63
2023/08/09 02:59:21;;;;;;;1.40;1.30;;;12.70;99.90;;;;;;5053982;28;20123;-63
2023/08/09 03:01:46;;;;;;;3.65;1.33;;;12.70;99.90;;;;;;5051836;28;20099;-64
2023/08/09 03:04:12;;;;;;;3.00;1.55;;;12.70;99.90;;;;;;5053284;28;20033;-64
2023/08/09 03:06:37;;;;;;;2.35;1.20;;;12.70;99.90;;;;;;5053516;28;20470;-63
2023/08/09 03:09:03;;;;;;;1.85;1.60;;;12.60;99.90;;;;;;5053728;28;20033;-63
2023/08/09 03:11:29;;;;;;;4.22;1.75;;;12.60;99.90;;;;;;5053462;28;20050;-64
2023/08/09 03:13:55;;;;;;;2.10;1.50;;;12.60;99.90;;;;;;5051833;28;20040;-63
2023/08/09 03:16:22;;;;;;;1.98;1.30;;;12.60;99.90;;;;;;5052153;28;20025;-63
2023/08/09 03:18:48;;;;;;;4.90;1.50;;;12.60;99.90;;;;;;5053426;28;20052;-63
2023/08/09 03:21:14;;;;;;;1.55;1.45;;;12.60;99.90;;;;;;5053661;28;20059;-63
2023/08/09 03:23:40;;;;;;;1.73;1.30;;;12.60;99.90;;;;;;5053389;28;20107;-63
2023/08/09 03:26:05;;;;;;;3.70;1.95;;;12.50;99.90;;;;;;5053308;28;20475;-63
2023/08/09 03:28:32;;;;;;;4.07;1.67;;;12.50;99.90;;;;;;5053616;28;20074;-63
2023/08/09 03:30:58;;;;;;;2.50;1.65;;;12.50;99.90;;;;;;5055729;28;20029;-63
2023/08/09 03:33:24;;;;;;;6.03;1.80;;;12.50;99.90;;;;;;5057031;28;20516;-63
2023/08/09 03:35:50;;;;;;;3.42;2.13;;;12.40;99.90;;;;;;5057411;28;20025;-63
2023/08/09 03:38:16;;;;;;;1.67;1.58;;;12.40;99.90;;;;;;5057227;28;20166;-63
2023/08/09 03:40:42;;;;;;;2.75;1.75;;;12.40;99.90;;;;;;5056710;28;20057;-63
2023/08/09 03:43:07;;;;;;;3.17;1.65;;;12.40;99.90;;;;;;5056610;28;20103;-63
2023/08/09 03:45:33;;;;;;;3.47;1.58;;;12.40;99.90;;;;;;5056962;28;20035;-63
2023/08/09 03:47:59;;;;;;;2.83;2.00;;;12.50;99.90;;;;;;5056595;28;20033;-64
2023/08/09 03:50:25;;;;;;;2.40;1.70;;;12.50;99.90;;;;;;5056830;28;20099;-63
2023/08/09 03:52:51;;;;;;;2.45;1.73;;;12.50;99.90;;;;;;5055506;28;20039;-63
2023/08/09 03:55:17;;;;;;;4.65;1.73;;;12.50;99.90;;;;;;5056744;28;20024;-63
2023/08/09 03:57:43;;;;;;;2.05;1.58;;;12.50;99.90;;;;;;5056430;28;20073;-63
2023/08/09 04:00:13;;;;;;;1.70;1.60;;;12.50;99.90;;;;;;5056655;28;20427;-63
2023/08/09 04:02:39;;;;;;;1.95;1.73;;;12.50;99.90;;;;;;5055404;28;20025;-63
2023/08/09 04:05:05;;;;;;;5.03;2.05;;;12.50;99.90;;;;;;5055222;28;20052;-63
2023/08/09 04:07:31;;;;;;;4.40;2.10;;;12.50;99.90;;;;;;5056544;28;20036;-64
2023/08/09 04:09:56;;;;;;;1.50;1.38;;;12.60;99.90;;;;;;5056682;28;20094;-64
2023/08/09 04:12:22;;;;;;;2.85;1.70;;;12.60;99.90;;;;;;5056710;28;20032;-63
2023/08/09 04:14:48;;;;;;;5.30;1.80;;;12.60;99.90;;;;;;5056406;28;20078;-63
2023/08/09 04:17:13;;;;;;;5.43;1.75;;;12.60;99.90;;;;;;5056308;28;20025;-63
2023/08/09 04:19:39;;;;;;;2.17;1.92;;;12.60;99.90;;;;;;5055563;28;20381;-63
2023/08/09 04:22:04;;;;;;;2.83;1.70;;;12.60;99.90;;;;;;5056279;28;20033;-63
2023/08/09 04:24:30;;;;;;;5.57;2.22;;;12.70;99.90;;;;;;5056201;28;20517;-64
2023/08/09 04:26:56;;;;;;;8.57;4.15;;;12.70;99.90;;;;;;5056232;28;20044;-64
2023/08/09 04:29:21;;;;;;;1.50;1.40;;;12.80;99.90;;;;;;5056248;28;20108;-64
2023/08/09 04:31:48;;;;;;;3.10;2.08;;;12.80;99.90;;;;;;5056129;28;20053;-64
2023/08/09 04:34:13;;;;;;;5.75;1.88;;;12.80;99.90;;;;;;5056173;28;20108;-64
2023/08/09 04:36:39;;;;;;;2.67;1.67;;;12.90;99.90;;;;;;5056207;28;20068;-64
2023/08/09 04:39:08;;;;;;;4.80;2.13;;;12.90;99.90;;;;;;5056349;28;20459;-64
2023/08/09 04:41:35;;;;;;;4.47;1.70;;;12.90;99.90;;;;;;5054650;28;20017;-64
2023/08/09 04:44:00;;;;;;;3.50;1.55;;;13.00;99.90;;;;;;5055772;28;20036;-64
2023/08/09 04:46:26;;;;;;;3.75;1.70;;;13.00;99.90;;;;;;5056013;28;20032;-63
2023/08/09 04:48:52;;;;;;;6.80;1.50;;;13.00;99.90;;;;;;5055740;28;20473;-63
2023/08/09 04:51:18;;;;;;;4.35;1.80;;;13.10;99.90;;;;;;5055396;28;20025;-63
2023/08/09 04:53:44;;;;;;;3.97;1.58;;;13.10;99.90;;;;;;5055873;28;20348;-63
2023/08/09 04:56:10;;;;;;;2.58;1.50;;;13.10;99.90;;;;;;5055778;28;20025;-63
2023/08/09 04:58:37;;;;;;;7.55;1.80;;;13.20;99.90;;;;;;5055544;28;20425;-63
2023/08/09 05:01:02;;;;;;;4.93;1.80;;;13.20;99.90;;;;;;5055464;28;20029;-62
2023/08/09 05:03:28;;;;;;;3.03;1.67;;;13.20;99.90;;;;;;5055333;28;20079;-62
2023/08/09 05:05:54;;;;;;;2.65;1.75;;;13.30;99.90;;;;;;5055677;28;20406;-63
2023/08/09 05:08:20;;;;;;;3.63;1.30;;;13.30;99.90;;;;;;5055370;28;20025;-63
2023/08/09 05:10:45;;;;;;;2.35;1.50;;;13.40;99.90;;;;;;5055308;28;20029;-63
2023/08/09 05:13:11;;;;;;;2.53;1.45;;;13.40;99.90;;;;;;5053980;28;20032;-58
2023/08/09 05:15:37;;;;;;;2.35;1.52;;;13.40;99.90;;;;;;5055173;28;20074;-58
2023/08/09 05:18:03;;;;;;;3.90;1.33;;;13.40;99.90;;;;;;5055120;28;20025;-58
2023/08/09 05:20:29;;;;;;;4.43;1.70;;;13.50;99.90;;;;;;5054345;28;20025;-59
2023/08/09 05:22:54;;;;;;;2.15;1.30;;;13.60;99.90;;;;;;5055204;28;20040;-58
2023/08/09 05:25:20;;;;;;;2.90;1.30;;;13.60;99.90;;;;;;5053537;28;20383;-58
2023/08/09 05:27:47;;;;;;;2.25;1.45;;;13.70;99.90;;;;;;5055324;28;20360;-58
2023/08/09 05:30:14;;;;;;;3.58;1.52;;;13.80;99.90;;;;;;5053669;28;20028;-63
2023/08/09 05:32:40;;;;;;;8.65;1.55;;;13.80;99.90;;;;;;5054853;28;20040;-63
2023/08/09 05:35:06;;;;;;;6.72;1.35;;;13.80;99.90;;;;;;5054611;28;20430;-63
2023/08/09 05:37:32;;;;;;;2.10;1.45;;;13.80;99.90;;;;;;5054539;28;20028;-62
2023/08/09 05:39:57;;;;;;;4.13;1.70;;;13.90;99.90;;;;;;5053505;28;20031;-63
2023/08/09 05:42:23;;;;;;;3.72;1.52;;;13.90;99.90;;;;;;5054650;28;20033;-63
2023/08/09 05:44:49;;;;;;;8.38;1.70;;;14.00;99.90;;;;;;5054642;28;20024;-58
2023/08/09 05:47:14;;;;;;;2.78;1.40;;;14.00;99.90;;;;;;5053769;28;20056;-56
2023/08/09 05:49:40;;;;;;;2.03;1.40;;;14.10;99.90;;;;;;5054798;28;20538;-57
2023/08/09 05:52:06;;;;;;;3.47;1.52;;;14.20;99.90;;;;;;5054112;28;20520;-57
2023/08/09 05:54:32;;;;;;;4.18;1.23;;;14.40;99.90;;;;;;5054441;28;20025;-56
2023/08/09 05:57:00;;;;;;;1.35;1.20;;;14.50;99.90;;;;;;5054379;28;20033;-57
2023/08/09 05:59:26;;;;;;;6.63;1.25;;;14.50;99.90;;;;;;5054260;28;20025;-56
2023/08/09 06:01:51;;;;;;;3.28;1.40;;;14.50;99.90;;;;;;5052926;28;20032;-57
2023/08/09 06:04:17;;;;;;;2.50;1.42;;;14.40;99.90;;;;;;5053999;28;20485;-57
2023/08/09 06:06:43;;;;;;;5.13;2.13;;;14.50;99.90;;;;;;5053987;28;20083;-56
2023/08/09 06:09:10;;;;;;;3.72;1.98;;;14.50;99.90;;;;;;5052740;28;20029;-57
2023/08/09 06:11:35;;;;;;;2.08;1.55;;;14.50;99.90;;;;;;5053419;28;20032;-56
2023/08/09 06:14:01;;;;;;;2.33;1.80;;;14.60;99.90;;;;;;5054254;28;20086;-57
2023/08/09 06:16:27;;;;;;;6.53;1.52;;;14.70;99.90;;;;;;5054312;28;20055;-56
2023/08/09 06:18:53;;;;;;;4.43;1.40;;;14.80;99.90;;;;;;5052886;28;20025;-56
2023/08/09 06:21:18;;;;;;;4.00;2.20;;;14.80;99.90;;;;;;5054307;28;20347;-56
2023/08/09 06:23:44;;;;;;;3.22;1.65;;;14.90;99.90;;;;;;5053414;28;20057;-63
2023/08/09 06:26:09;;;;;;;3.13;1.40;;;14.90;99.90;;;;;;5052535;28;20029;-63
2023/08/09 06:28:35;;;;;;;4.90;1.70;;;15.00;99.90;;;;;;5053881;28;20024;-63
2023/08/09 06:31:01;;;;;;;4.05;1.98;;;15.00;99.90;;;;;;5052920;28;20037;-68
2023/08/09 06:33:30;;;;;;;4.65;1.75;;;15.10;99.90;;;;;;5053675;28;20029;-64
2023/08/09 06:35:55;;;;;;;6.82;1.90;;;15.20;99.90;;;;;;5052533;28;20025;-63
2023/08/09 06:38:21;;;;;;;4.35;1.70;;;15.30;99.90;;;;;;5053714;28;20108;-63
2023/08/09 06:40:46;;;;;;;5.38;1.30;;;15.30;99.90;;;;;;5053843;28;20036;-63
2023/08/09 06:43:12;;;;;;;4.50;1.60;;;15.30;99.90;;;;;;5053320;28;20079;-63
2023/08/09 06:45:38;;;;;;;2.97;1.23;;;15.30;99.90;;;;;;5053110;28;20036;-63
2023/08/09 06:48:04;;;;;;;3.97;1.75;;;15.30;99.90;;;;;;5053368;28;20104;-63
2023/08/09 06:50:30;;;;;;;4.70;1.55;;;15.30;99.90;;;;;;5053659;28;20108;-63
2023/08/09 06:52:56;;;;;;;4.50;1.63;;;15.30;99.90;;;;;;5053413;28;20187;-63
2023/08/09 06:55:22;;;;;;;7.60;1.80;;;15.30;99.90;;;;;;5053132;28;20028;-63
2023/08/09 06:57:47;;;;;;;3.90;1.63;;;15.40;99.90;;;;;;5053211;28;20110;-63
2023/08/09 07:00:17;;;;;;;1.88;1.65;;;15.50;99.90;;;;;;5053262;28;20056;-63
2023/08/09 07:02:46;;;;;;;7.15;1.70;;;15.60;99.90;;;;;;5052379;28;20378;-63
2023/08/09 07:05:18;;;;;;;3.08;1.65;;;15.60;99.90;;;;;;5056144;28;20021;-63
2023/08/09 07:07:45;;;;;;;5.10;1.60;;;15.60;99.90;;;;;;5056871;28;20029;-63
2023/08/09 07:10:12;;;;;;;2.53;1.60;;;15.70;99.90;;;;;;5057246;28;20391;-63
2023/08/09 07:12:38;;;;;;;4.55;1.75;;;15.90;99.90;;;;;;5057559;28;20033;-63
2023/08/09 07:15:08;;;;;;;3.58;1.90;;;16.10;99.90;;;;;;5057950;28;20047;-63
2023/08/09 07:17:37;;;;;;;4.32;1.65;;;16.30;99.90;;;;;;5057639;28;20021;-64
2023/08/09 07:20:09;;;;;;;3.40;1.75;;;16.50;99.90;;;;;;5057585;28;20113;-64
2023/08/09 07:22:35;;;;;;;1.15;1.02;;;16.70;99.90;;;;;;5057093;28;20025;-63
2023/08/09 07:25:01;;;;;;;1.67;1.50;;;16.80;99.90;;;;;;5057558;28;20166;-63
2023/08/09 07:27:28;;;;;;;2.90;1.50;;;16.90;99.90;;;;;;5057185;28;20027;-63
2023/08/09 07:29:54;;;;;;;3.13;1.27;;;16.90;99.90;;;;;;5056078;28;20017;-63
2023/08/09 07:32:19;;;;;;;2.35;1.50;;;16.80;99.90;;;;;;5057252;28;20429;-65
2023/08/09 07:34:45;;;;;;;2.92;1.67;;;16.80;99.90;;;;;;5056814;28;20540;-63
2023/08/09 07:37:11;;;;;;;5.07;1.70;;;16.70;99.90;;;;;;5057068;28;20490;-63
2023/08/09 07:39:36;;;;;;;3.25;1.73;;;16.70;99.90;;;;;;5057105;28;20486;-63
2023/08/09 07:42:02;;;;;;;4.20;1.70;;;16.60;99.90;;;;;;5056890;28;20459;-63
2023/08/09 07:44:28;;;;;;;5.82;1.45;;;16.60;99.90;;;;;;5056569;28;20044;-63
2023/08/09 07:46:54;;;;;;;4.63;1.27;;;16.60;99.90;;;;;;5057090;28;20021;-64
2023/08/09 07:49:20;;;;;;;2.15;1.50;;;16.50;99.90;;;;;;5055531;28;20585;-63
2023/08/09 07:51:45;;;;;;;3.28;1.92;;;16.50;99.90;;;;;;5056862;28;20053;-64
2023/08/09 07:54:11;;;;;;;4.40;1.77;;;16.60;99.90;;;;;;5056658;28;20033;-64
2023/08/09 07:56:37;;;;;;;6.22;2.15;;;16.70;99.90;;;;;;5056035;28;20060;-64
2023/08/09 07:59:03;;;;;;;3.05;1.80;;;16.90;99.90;;;;;;5056554;28;20033;-64
2023/08/09 08:01:28;;;;;;;5.03;2.38;;;17.00;99.90;;;;;;5056790;28;20025;-64
2023/08/09 08:03:54;;;;;;;4.30;1.60;;;17.10;99.90;;;;;;5056112;28;20043;-64
2023/08/09 08:06:20;;;;;;;4.88;1.60;;;17.20;99.90;;;;;;5056817;28;20036;-64
2023/08/09 08:08:46;;;;;;;2.63;1.20;;;17.20;99.90;;;;;;5056381;28;20075;-64
2023/08/09 08:11:11;;;;;;;2.17;1.58;;;17.20;99.90;;;;;;5056085;28;20025;-63
2023/08/09 08:13:37;;;;;;;3.50;2.20;;;17.20;99.90;;;;;;5056535;28;20064;-63
2023/08/09 08:16:04;;;;;;;3.40;1.85;;;17.30;99.90;;;;;;5056099;28;20091;-63
2023/08/09 08:18:30;;;;;;;1.80;1.70;;;17.30;99.90;;;;;;5054936;28;20466;-63
2023/08/09 08:20:57;;;;;;;3.58;1.65;;;17.30;99.90;;;;;;5056102;28;20108;-63
2023/08/09 08:23:23;;;;;;;4.05;1.73;;;17.20;99.90;;;;;;5055903;28;20040;-63
2023/08/09 08:25:49;;;;;;;4.30;2.03;;;17.10;99.90;;;;;;5055997;28;20029;-63
2023/08/09 08:28:15;;;;;;;5.13;1.98;;;17.10;99.90;;;;;;5054974;28;20029;-63
2023/08/09 08:30:41;;;;;;;12.43;2.65;;;17.00;99.90;;;;;;5056101;28;20025;-63
2023/08/09 08:33:08;;;;;;;9.25;2.42;;;16.90;99.90;;;;;;5054974;28;20033;-63
2023/08/09 08:35:36;;;;;;;8.70;2.58;;;16.80;99.90;;;;;;5054446;28;20028;-63
2023/08/09 08:38:03;;;;;;;4.93;2.47;;;16.70;99.90;;;;;;5055925;28;20025;-65
2023/08/09 08:40:31;;;;;;;6.10;2.17;;;16.50;99.90;;;;;;5054553;28;20127;-65
2023/08/09 08:42:58;;;;;;;4.00;2.33;;;16.40;99.90;;;;;;5055726;28;20033;-64
2023/08/09 08:45:24;;;;;;;5.55;2.40;;;16.30;99.90;;;;;;5055760;28;20024;-67
2023/08/09 08:47:49;;;;;;;6.40;2.85;;;16.20;99.90;;;;;;5054520;28;20032;-64
2023/08/09 08:50:16;;;;;;;11.35;3.17;;;16.20;99.90;;;;;;5056260;28;20029;-64
2023/08/09 08:52:45;;;;;;;9.07;2.78;;;16.10;99.90;;;;;;5055362;28;20113;-64
2023/08/09 08:55:12;;;;;;;;;;;16.10;99.90;;;;;;5056260;28;20017;-64
2023/08/09 08:57:38;;;;;;;6.20;2.50;;;16.10;99.90;;;;;;5055592;28;19912;-64
2023/08/09 09:00:08;;;;;;;4.22;1.80;;;16.00;99.90;;;;;;5055815;28;20040;-63
2023/08/09 09:02:38;;;;;;;5.50;2.28;;;15.90;99.90;;;;;;5055482;28;20041;-63
2023/08/09 09:05:06;;;;;;;3.60;2.05;;;15.70;99.90;;;;;;5055539;28;20032;-64
2023/08/09 09:07:32;;;;;;;6.38;2.50;;;15.60;99.90;;;;;;5054138;28;20082;-63
2023/08/09 09:10:03;;;;;;;4.82;2.40;;;15.60;99.90;;;;;;5055521;28;20025;-63
2023/08/09 09:12:29;;;;;;;8.73;5.45;;;15.60;99.90;;;;;;5055620;28;20036;-63
2023/08/09 09:14:55;;;;;;;7.63;3.08;;;15.50;99.90;;;;;;5055468;28;20029;-63
2023/08/09 09:17:21;;;;;;;11.05;2.83;;;15.60;99.90;;;;;;5055554;28;20366;-64
2023/08/09 09:19:47;;;;;;;6.95;2.33;;;15.60;99.90;;;;;;5054903;28;20025;-63
2023/08/09 09:22:28;;;;;;;3.47;2.38;;;15.60;99.90;;;;;;5053591;28;20108;-63
2023/08/09 09:25:00;;;;;;;4.55;2.70;;;15.50;99.90;;;;;;5055141;28;20076;-64
2023/08/09 09:27:33;;;;;;;5.30;2.40;;;15.60;99.90;;;;;;5054606;28;20382;-64
2023/08/09 09:30:12;;;;;;;6.75;3.45;;;15.60;99.90;;;;;;5053786;28;20053;-63
2023/08/09 09:32:59;;;;;;;13.32;2.97;;;15.60;99.90;;;;;;5054896;28;20378;-64
2023/08/09 09:35:26;;;;;;;7.20;2.83;;;15.60;99.90;;;;;;5054192;28;20037;-64
2023/08/09 09:37:54;;;;;;;6.93;3.67;;;15.60;99.90;;;;;;5054994;28;20021;-63
2023/08/09 09:40:24;;;;;;;7.25;3.90;;;15.70;99.90;;;;;;5054844;28;20021;-63
2023/08/09 09:42:53;;;;;;;4.25;2.20;;;15.70;99.90;;;;;;5054410;28;20063;-64
2023/08/09 09:45:25;;;;;;;4.60;2.58;;;15.80;99.90;;;;;;5054949;28;20025;-64
2023/08/09 09:47:55;;;;;;;4.35;2.28;;;15.70;99.90;;;;;;5054581;28;20033;-64
2023/08/09 09:50:22;;;;;;;3.95;2.30;;;16.00;99.90;;;;;;5054425;28;20471;-63
2023/08/09 09:52:49;;;;;;;3.03;2.22;;;15.70;99.90;;;;;;5054673;28;20068;-64
2023/08/09 09:55:17;;;;;;;7.95;2.80;;;15.60;99.90;;;;;;5054535;28;20029;-64
2023/08/09 09:57:43;;;;;;;5.45;2.40;;;15.70;99.90;;;;;;5054515;28;20088;-63
2023/08/09 10:00:20;;;;;;;2.25;1.95;;;15.70;99.90;;;;;;5054320;28;20458;-64
2023/08/09 10:02:47;;;;;;;5.53;2.40;;;15.60;99.90;;;;;;5054354;28;20044;-64
2023/08/09 10:05:20;;;;;;;5.90;2.40;;;15.60;99.90;;;;;;5054395;28;20416;-64
2023/08/09 10:07:47;;;;;;;2.40;2.10;;;15.60;99.90;;;;;;5054457;28;20025;-64
2023/08/09 10:10:14;;;;;;;5.32;2.47;;;15.60;99.90;;;;;;5054155;28;20025;-64
2023/08/09 10:13:00;;;;;;;5.35;3.45;;;15.60;99.90;;;;;;5054336;28;20033;-64
2023/08/09 10:15:41;;;;;;;3.67;2.85;;;15.60;99.90;;;;;;5053989;28;20355;-64
2023/08/09 10:18:24;;;;;;;5.45;2.03;;;15.60;99.90;;;;;;5054367;28;20021;-64
2023/08/09 10:20:52;;;;;;;3.72;2.20;;;15.60;99.90;;;;;;5054234;28;20047;-64
2023/08/09 10:23:26;;;;;;;4.88;2.47;;;15.70;99.90;;;;;;5053758;28;20044;-63
2023/08/09 10:25:53;;;;;;;3.88;2.40;;;15.70;99.90;;;;;;5054401;28;20029;-64
2023/08/09 10:28:44;;;;;;;3.80;2.42;;;15.80;99.90;;;;;;5052553;28;20041;-64
2023/08/09 10:31:10;;;;;;;3.65;2.30;;;15.80;99.90;;;;;;5053959;28;20021;-64
2023/08/09 10:33:36;;;;;;;2.92;2.47;;;15.80;99.90;;;;;;5053748;28;20029;-64
2023/08/09 10:36:01;;;;;;;4.00;2.15;;;15.80;99.90;;;;;;5053783;28;20029;-64
2023/08/09 10:38:30;;;;;;;3.80;2.58;;;15.80;99.90;;;;;;5052388;28;20497;-64
2023/08/09 10:40:56;;;;;;;4.80;2.75;;;15.80;99.90;;;;;;5053949;28;20025;-64
2023/08/09 10:43:26;;;;;;;5.43;3.05;;;15.80;99.90;;;;;;5053373;28;20043;-64
2023/08/09 10:45:55;;;;;;;3.35;2.30;;;16.00;99.90;;;;;;5053450;28;20033;-64
2023/08/09 10:48:28;;;;;;;3.75;2.50;;;16.10;99.90;;;;;;5053318;28;20138;-64
2023/08/09 10:51:18;;;;;;;3.85;2.80;;;16.20;99.90;;;;;;5053677;28;20036;-64
2023/08/09 10:53:50;;;;;;;4.22;2.47;;;16.30;99.90;;;;;;5040063;28;20136;-63
2023/08/09 10:56:34;;;;;;;4.95;2.70;;;16.30;99.90;;;;;;5052314;28;20031;-63
2023/08/09 10:59:06;;;;;;;3.83;2.15;;;16.30;99.90;;;;;;5053566;28;20104;-64
2023/08/09 11:01:36;;;;;;;3.65;1.95;;;16.30;99.90;;;;;;5053425;28;20076;-63
2023/08/09 11:04:09;;;;;;;4.95;2.45;;;16.30;99.90;;;;;;5053340;28;20059;-63
2023/08/09 11:06:39;;;;;;;3.78;2.35;;;16.30;99.90;;;;;;5053532;28;20542;-63
2023/08/09 11:09:12;;;;;;;2.97;2.10;;;16.20;99.90;;;;;;5052097;28;20116;-63
2023/08/09 11:11:40;;;;;;;4.90;2.13;;;16.10;99.90;;;;;;5052399;28;20025;-63
2023/08/09 11:14:07;;;;;;;4.22;2.10;;;16.10;99.90;;;;;;5052106;28;20056;-63
2023/08/09 11:16:33;;;;;;;5.57;2.17;;;16.00;99.90;;;;;;5053364;28;20030;-63
2023/08/09 11:19:10;;;;;;;3.30;2.10;;;15.90;99.90;;;;;;5053335;28;20052;-63
2023/08/09 11:21:43;;;;;;;7.25;2.33;;;15.80;99.90;;;;;;5053537;28;20090;-63
2023/08/09 11:24:10;;;;;;;3.78;2.30;;;15.80;99.90;;;;;;5052015;28;20057;-63
2023/08/09 11:26:38;;;;;;;4.18;2.30;;;15.90;99.90;;;;;;5052963;28;20040;-63
2023/08/09 11:29:05;;;;;;;5.43;3.10;;;15.90;99.90;;;;;;5052998;28;20036;-63
2023/08/09 11:31:39;;;;;;;3.35;2.67;;;16.10;99.90;;;;;;5053164;28;20029;-63
2023/08/09 11:34:05;;;;;;;3.85;2.33;;;16.30;99.90;;;;;;5052038;28;20480;-64
2023/08/09 11:36:32;;;;;;;6.30;2.00;;;16.40;99.90;;;;;;5053053;28;20029;-64
2023/08/09 11:38:59;;;;;;;3.92;1.65;;;16.50;99.90;;;;;;5053186;28;20028;-64
2023/08/09 11:41:27;;;;;;;1.90;1.75;;;16.70;99.90;;;;;;5052841;28;20123;-64
2023/08/09 11:43:53;;;;;;;2.53;1.60;;;16.70;99.90;;;;;;5051748;28;20371;-64
2023/08/09 11:46:22;;;;;;;3.28;1.77;;;16.80;99.90;;;;;;5052869;28;20083;-64
2023/08/09 11:48:51;;;;;;;4.40;2.10;;;16.90;99.90;;;;;;5053373;28;20051;-64
2023/08/09 11:51:20;;;;;;;;;;;17.10;99.90;;;;;;5055905;28;20064;-64
2023/08/09 11:53:49;;;;;;;2.58;1.50;;;17.40;99.90;;;;;;5055530;28;19958;-64
2023/08/09 11:56:23;;;;;;;2.80;1.60;;;17.50;99.90;;;;;;5056536;28;20501;-63
2023/08/09 11:58:54;;;;;;;4.75;1.50;;;17.50;99.90;;;;;;5055433;28;20115;-63
2023/08/09 12:01:24;;;;;;;4.68;3.22;;;17.50;99.90;;;;;;5056926;28;20025;-63
2023/08/09 12:03:52;;;;;;;2.47;1.58;;;17.40;99.90;;;;;;5056764;28;20115;-63
2023/08/09 12:06:32;;;;;;;3.13;1.90;;;17.30;99.90;;;;;;5056425;28;20029;-63
2023/08/09 12:08:58;;;;;;;3.95;1.77;;;17.20;99.90;;;;;;5056581;28;20053;-63
2023/08/09 12:11:23;;;;;;;1.60;1.33;;;17.30;99.90;;;;;;5056571;28;20076;-63
2023/08/09 12:13:49;;;;;;;2.10;1.65;;;17.20;99.90;;;;;;5056100;28;20033;-64
2023/08/09 12:16:15;;;;;;;2.60;1.75;;;17.20;99.90;;;;;;5056471;28;20079;-64
2023/08/09 12:18:40;;;;;;;2.63;1.48;;;17.20;99.90;;;;;;5055267;28;20059;-63
2023/08/09 12:21:08;;;;;;;3.60;1.75;;;17.20;99.90;;;;;;5056349;28;20025;-63
2023/08/09 12:23:37;;;;;;;3.17;1.63;;;17.30;99.90;;;;;;5056233;28;20060;-63
2023/08/09 12:26:03;;;;;;;5.70;2.03;;;17.40;99.90;;;;;;5056292;28;20044;-63
2023/08/09 12:28:30;;;;;;;1.58;1.15;;;17.60;99.90;;;;;;5054748;28;20025;-64
2023/08/09 12:30:55;;;;;;;2.95;1.50;;;17.70;99.90;;;;;;5054848;28;20116;-64
2023/08/09 12:33:21;;;;;;;1.40;1.10;;;17.80;99.90;;;;;;5055718;28;20581;-63
2023/08/09 12:35:47;;;;;;;3.60;1.20;;;17.80;99.90;;;;;;5056181;28;20155;-63
2023/08/09 12:38:12;;;;;;;2.13;0.93;;;17.80;99.90;;;;;;5055675;28;20021;-64
2023/08/09 12:40:38;;;;;;;1.55;1.00;;;17.70;99.90;;;;;;5055686;28;20021;-64
2023/08/09 12:43:04;;;;;;;1.70;1.42;;;17.70;99.90;;;;;;5056147;28;20036;-64
2023/08/09 12:45:30;;;;;;;1.52;1.15;;;17.80;99.90;;;;;;5055961;28;20032;-64
2023/08/09 12:47:55;;;;;;;3.08;1.20;;;17.70;99.90;;;;;;5055348;28;20117;-63